Terminal Aerodrome Forecast
Issued by NWS

Home | Current Version | Previous Version | Text Only | Print | Product List | Glossary On
Versions: 1 2 3 4 5 6 7 8 9 10 11 12
975
FTUS42 TJSJ 202320
TAFJMZ
TAF
TJMZ 202320Z 2100/2124 VRB05KT P6SM FEW025 SCT070
     FM211200 12003KT P6SM FEW250
     FM212300 VRB06KT P6SM BKN060
      AMD NOT SKED=

USA.gov is the U.S. government's official web portal to all federal, state and local government web resources and services.